Time;durP1;ratioP1;P1;durP2;ratioP2;P2;SDS_P1;SDS_P2;PMS_P1;PMS_P2;Temp;Humidity;BMP_temperature;BMP_pressure;BME280_temperature;BME280_humidity;BME280_pressure;Samples;Min_cycle;Max_cycle;Signal;HPM_P1;HPM_P2
2022/03/30 00:01:26;;;;;;;38.60;24.00;;;9.50;99.90;;;;;;5074848;28;20028;-85
2022/03/30 00:03:52;;;;;;;41.10;24.55;;;9.50;99.90;;;;;;5078259;28;20113;-85
2022/03/30 00:06:18;;;;;;;39.83;24.88;;;9.40;99.90;;;;;;5074850;28;20028;-84
2022/03/30 00:08:44;;;;;;;44.55;24.63;;;9.40;99.90;;;;;;5074146;28;20082;-85
2022/03/30 00:11:11;;;;;;;46.58;25.05;;;9.40;99.90;;;;;;5075020;28;20410;-85
2022/03/30 00:13:39;;;;;;;40.35;24.40;;;9.40;99.90;;;;;;5091452;28;20036;-84
2022/03/30 00:16:06;;;;;;;45.17;24.42;;;9.40;99.90;;;;;;5074270;28;20032;-85
2022/03/30 00:18:33;;;;;;;43.90;24.63;;;9.40;99.90;;;;;;5073930;28;20024;-84
2022/03/30 00:20:58;;;;;;;37.92;24.13;;;9.40;99.90;;;;;;5074448;28;20032;-84
2022/03/30 00:23:24;;;;;;;42.88;22.45;;;9.30;99.90;;;;;;5091660;28;20035;-84
2022/03/30 00:25:50;;;;;;;43.05;23.65;;;9.40;99.90;;;;;;5092871;28;20028;-85
2022/03/30 00:28:16;;;;;;;40.50;22.88;;;9.40;99.90;;;;;;5073938;28;20028;-85
2022/03/30 00:30:42;;;;;;;40.33;23.05;;;9.40;99.90;;;;;;5091059;28;20483;-84
2022/03/30 00:33:08;;;;;;;42.15;24.52;;;9.40;99.90;;;;;;5074173;28;20906;-85
2022/03/30 00:35:34;;;;;;;43.00;24.27;;;9.40;99.90;;;;;;5109932;28;20077;-85
2022/03/30 00:38:00;;;;;;;41.53;25.30;;;9.30;99.90;;;;;;5077877;28;20118;-85
2022/03/30 00:40:25;;;;;;;41.53;24.80;;;9.30;99.90;;;;;;5096210;28;20039;-84
2022/03/30 00:42:51;;;;;;;37.33;23.90;;;9.30;99.90;;;;;;5078018;28;20074;-85
2022/03/30 00:45:23;;;;;;;40.53;24.30;;;9.20;99.90;;;;;;5078227;28;20028;-85
2022/03/30 00:47:50;;;;;;;42.63;23.95;;;9.20;99.90;;;;;;5077838;28;20028;-85
2022/03/30 00:50:19;;;;;;;38.22;23.60;;;9.10;99.90;;;;;;5077862;28;20039;-84
2022/03/30 00:52:47;;;;;;;43.55;26.33;;;9.10;99.90;;;;;;5077989;28;20039;-85
2022/03/30 00:55:16;;;;;;;42.22;24.48;;;9.10;99.90;;;;;;5076797;28;20115;-85
2022/03/30 00:57:45;;;;;;;39.92;21.95;;;9.00;99.90;;;;;;5110997;28;20044;-85
2022/03/30 01:00:14;;;;;;;39.50;24.30;;;9.00;99.90;;;;;;5077581;28;20407;-85
2022/03/30 01:02:43;;;;;;;39.00;23.85;;;9.10;99.90;;;;;;5077367;28;20025;-85
2022/03/30 01:05:09;;;;;;;42.35;24.55;;;9.00;99.90;;;;;;5077513;28;20028;-85
2022/03/30 01:07:35;;;;;;;43.25;24.35;;;9.00;99.90;;;;;;5077292;28;20028;-85
2022/03/30 01:10:06;;;;;;;39.33;24.02;;;8.90;99.90;;;;;;5077227;28;20120;-85
2022/03/30 01:12:34;;;;;;;42.20;23.80;;;8.90;99.90;;;;;;5093978;28;20094;-85
2022/03/30 01:15:00;;;;;;;38.75;24.15;;;9.00;99.90;;;;;;5076610;28;20039;-86
2022/03/30 01:17:27;;;;;;;36.90;24.05;;;9.00;99.90;;;;;;5076544;28;20039;-86
2022/03/30 01:19:52;;;;;;;41.80;23.38;;;8.90;99.90;;;;;;5076758;28;20040;-85
2022/03/30 01:22:18;;;;;;;38.75;23.73;;;8.90;99.90;;;;;;5095038;28;20519;-85
2022/03/30 01:24:44;;;;;;;37.05;22.90;;;8.90;99.90;;;;;;5077025;28;20035;-85
2022/03/30 01:27:11;;;;;;;44.70;25.02;;;8.80;99.90;;;;;;5076387;28;20356;-85
2022/03/30 01:32:28;;;;;;;43.60;26.40;;;8.70;99.90;;;;;;5095097;28;20032;-85
2022/03/30 01:34:57;;;;;;;47.33;26.65;;;8.60;99.90;;;;;;5076526;28;20028;-85
2022/03/30 01:37:24;;;;;;;45.20;26.52;;;8.50;99.90;;;;;;5059997;28;20478;-85
2022/03/30 01:39:50;;;;;;;51.92;27.88;;;8.40;99.90;;;;;;5076769;28;20663;-85
2022/03/30 01:42:16;;;;;;;42.70;27.65;;;8.30;99.90;;;;;;5076575;28;20126;-85
2022/03/30 01:44:42;;;;;;;48.47;28.58;;;8.20;99.90;;;;;;5076628;28;20558;-85
2022/03/30 01:47:10;;;;;;;48.55;28.17;;;8.20;99.90;;;;;;5075879;28;20028;-85
2022/03/30 01:49:36;;;;;;;45.70;27.67;;;8.20;99.90;;;;;;5093418;28;20036;-85
2022/03/30 01:52:03;;;;;;;54.05;30.77;;;8.10;99.90;;;;;;5093271;28;20094;-85
2022/03/30 01:54:34;;;;;;;54.97;29.42;;;8.10;99.90;;;;;;5076433;28;20098;-85
2022/03/30 01:57:00;;;;;;;46.92;29.38;;;8.20;99.90;;;;;;5076221;28;20040;-85
2022/03/30 01:59:26;;;;;;;52.47;30.60;;;8.20;99.90;;;;;;5060211;28;20028;-85
2022/03/30 02:01:52;;;;;;;49.60;29.85;;;8.10;99.90;;;;;;5076198;28;20028;-85
2022/03/30 02:04:18;;;;;;;56.10;29.90;;;8.10;99.90;;;;;;5075924;28;20040;-85
2022/03/30 02:06:44;;;;;;;53.05;30.30;;;8.10;99.90;;;;;;5109328;28;20426;-85
2022/03/30 02:09:12;;;;;;;54.47;31.85;;;8.10;99.90;;;;;;5075545;28;20023;-85
2022/03/30 02:11:38;;;;;;;56.58;30.25;;;8.20;99.90;;;;;;5075439;28;20036;-85
2022/03/30 02:14:04;;;;;;;60.08;32.00;;;8.10;99.90;;;;;;5075735;28;20081;-85
2022/03/30 02:16:29;;;;;;;56.75;30.77;;;8.10;99.90;;;;;;5094244;28;20630;-85
2022/03/30 02:18:55;;;;;;;50.83;30.10;;;8.00;99.90;;;;;;5076188;28;20463;-85
2022/03/30 02:21:21;;;;;;;58.15;31.42;;;7.90;99.90;;;;;;5075921;28;20032;-85
2022/03/30 02:23:47;;;;;;;49.17;28.40;;;7.90;99.90;;;;;;5109793;28;20032;-85
2022/03/30 02:26:14;;;;;;;50.20;29.83;;;7.90;99.90;;;;;;5094180;28;20097;-85
2022/03/30 02:28:41;;;;;;;52.15;30.15;;;7.90;99.90;;;;;;5075364;28;20783;-85
2022/03/30 02:31:07;;;;;;;45.60;28.00;;;7.90;99.90;;;;;;5059256;28;20035;-85
2022/03/30 02:33:33;;;;;;;52.72;28.75;;;7.80;99.90;;;;;;5075624;28;20032;-85
2022/03/30 02:35:59;;;;;;;48.58;27.95;;;7.80;99.90;;;;;;5075731;28;20083;-85
2022/03/30 02:38:25;;;;;;;61.03;29.55;;;7.80;99.90;;;;;;5109083;28;20106;-85
2022/03/30 02:40:50;;;;;;;46.85;27.20;;;7.80;99.90;;;;;;5092309;28;20036;-86
2022/03/30 02:43:19;;;;;;;49.17;29.40;;;7.90;99.90;;;;;;5093562;28;20220;-85
2022/03/30 02:45:46;;;;;;;58.33;30.65;;;7.90;99.90;;;;;;5092032;28;20024;-85
2022/03/30 02:48:20;;;;;;;47.70;28.90;;;7.90;99.90;;;;;;5075082;28;20028;-84
2022/03/30 02:50:52;;;;;;;53.92;30.80;;;7.80;99.90;;;;;;5074922;28;20044;-85
2022/03/30 02:53:19;;;;;;;55.55;31.67;;;7.70;99.90;;;;;;5091737;28;20809;-84
2022/03/30 02:55:45;;;;;;;56.15;32.05;;;7.70;99.90;;;;;;5075463;28;20039;-85
2022/03/30 02:58:11;;;;;;;59.75;33.80;;;7.60;99.90;;;;;;5074533;28;20127;-85
2022/03/30 03:00:41;;;;;;;60.10;33.83;;;7.50;99.90;;;;;;5092191;28;20036;-84
2022/03/30 03:03:08;;;;;;;63.70;34.83;;;7.50;99.90;;;;;;5092198;28;20182;-84
2022/03/30 03:05:35;;;;;;;65.90;35.60;;;7.50;99.90;;;;;;5074717;28;20107;-84
2022/03/30 03:08:05;;;;;;;65.20;35.80;;;7.40;99.90;;;;;;5074606;28;20035;-84
2022/03/30 03:10:37;;;;;;;69.72;37.20;;;7.50;99.90;;;;;;5092144;28;20028;-84
2022/03/30 03:13:04;;;;;;;67.00;37.55;;;7.40;99.90;;;;;;5075091;28;20040;-85
2022/03/30 03:15:31;;;;;;;66.75;35.83;;;7.50;99.90;;;;;;5074798;28;20123;-85
2022/03/30 03:17:57;;;;;;;67.10;35.33;;;7.50;99.90;;;;;;5074421;28;20703;-84
2022/03/30 03:20:24;;;;;;;70.43;36.85;;;7.50;99.90;;;;;;5074544;28;20032;-85
2022/03/30 03:22:50;;;;;;;66.68;36.20;;;7.40;99.90;;;;;;5093046;28;20091;-85
2022/03/30 03:25:15;;;;;;;73.72;38.33;;;7.30;99.90;;;;;;5074961;28;20496;-85
2022/03/30 03:27:41;;;;;;;75.68;40.42;;;7.40;99.90;;;;;;5074355;28;20764;-84
2022/03/30 03:30:08;;;;;;;71.15;39.10;;;7.40;99.90;;;;;;5074355;28;20085;-85
2022/03/30 03:32:34;;;;;;;81.47;40.33;;;7.40;99.90;;;;;;5073694;28;20038;-85
2022/03/30 03:35:00;;;;;;;89.63;42.28;;;7.30;99.90;;;;;;5074047;28;20028;-85
2022/03/30 03:37:25;;;;;;;86.03;41.22;;;7.30;99.90;;;;;;5074567;28;20099;-84
2022/03/30 03:39:51;;;;;;;89.20;42.03;;;7.30;99.90;;;;;;5074428;28;20060;-84
2022/03/30 03:42:17;;;;;;;94.95;43.92;;;7.30;99.90;;;;;;5074623;28;20039;-85
2022/03/30 03:44:43;;;;;;;103.13;46.97;;;7.30;99.90;;;;;;5092969;28;20024;-85
2022/03/30 03:47:09;;;;;;;96.95;45.75;;;7.30;99.90;;;;;;5074867;28;20036;-84
2022/03/30 03:49:39;;;;;;;94.18;45.80;;;7.30;99.90;;;;;;5074543;28;20063;-85
2022/03/30 03:52:06;;;;;;;104.97;45.30;;;7.20;99.90;;;;;;5074707;28;20483;-84
2022/03/30 03:54:32;;;;;;;103.15;46.75;;;7.30;99.90;;;;;;5074741;28;20028;-85
2022/03/30 03:56:58;;;;;;;110.82;52.10;;;7.20;99.90;;;;;;5074119;28;20040;-84
2022/03/30 03:59:24;;;;;;;115.35;50.75;;;7.30;99.90;;;;;;5074321;28;20052;-84
2022/03/30 04:01:49;;;;;;;114.22;51.83;;;7.30;99.90;;;;;;5108605;28;20028;-84
2022/03/30 04:04:19;;;;;;;124.68;56.15;;;7.30;99.90;;;;;;5074562;28;20436;-84
2022/03/30 04:06:44;;;;;;;125.32;53.92;;;7.30;99.90;;;;;;5074474;28;20085;-84
2022/03/30 04:09:10;;;;;;;132.57;55.95;;;7.20;99.90;;;;;;5109698;28;20785;-83
2022/03/30 04:11:36;;;;;;;125.82;55.65;;;7.30;99.90;;;;;;5078389;28;20391;-84
2022/03/30 04:14:02;;;;;;;123.68;53.38;;;7.30;99.90;;;;;;5077630;28;20081;-84
2022/03/30 04:16:28;;;;;;;108.07;50.33;;;7.20;99.90;;;;;;5077890;28;20016;-84
2022/03/30 04:18:54;;;;;;;108.43;51.75;;;7.30;99.90;;;;;;5077697;28;20035;-84
2022/03/30 04:21:20;;;;;;;117.45;52.50;;;7.30;99.90;;;;;;5077627;28;20032;-84
2022/03/30 04:23:45;;;;;;;119.55;53.20;;;7.20;99.90;;;;;;5096075;28;20024;-84
2022/03/30 04:26:11;;;;;;;116.88;52.00;;;7.20;99.90;;;;;;5078086;28;20471;-84
2022/03/30 04:28:40;;;;;;;117.35;53.05;;;7.20;99.90;;;;;;5094602;28;20025;-84
2022/03/30 04:31:11;;;;;;;119.50;52.58;;;7.20;99.90;;;;;;5077751;28;20441;-84
2022/03/30 04:33:37;;;;;;;130.85;55.85;;;7.20;99.90;;;;;;5077575;28;20640;-84
2022/03/30 04:36:04;;;;;;;121.47;54.55;;;7.30;99.90;;;;;;5077623;28;20027;-84
2022/03/30 04:38:30;;;;;;;119.70;54.42;;;7.30;99.90;;;;;;5095527;28;20097;-84
2022/03/30 04:40:56;;;;;;;101.97;50.83;;;7.30;99.90;;;;;;5077522;28;20063;-84
2022/03/30 04:43:22;;;;;;;109.20;51.97;;;7.30;99.90;;;;;;5077168;28;20419;-84
2022/03/30 04:45:48;;;;;;;104.03;51.05;;;7.20;99.90;;;;;;5094530;28;20119;-83
2022/03/30 04:48:14;;;;;;;109.30;50.40;;;7.20;99.90;;;;;;5076783;28;20112;-84
2022/03/30 04:50:39;;;;;;;108.18;52.72;;;7.20;99.90;;;;;;5094258;28;20529;-84
2022/03/30 04:53:05;;;;;;;120.57;53.22;;;7.20;99.90;;;;;;5077102;28;20024;-84
2022/03/30 04:55:31;;;;;;;117.57;53.75;;;7.20;99.90;;;;;;5077325;28;20035;-84
2022/03/30 04:57:57;;;;;;;122.78;55.38;;;7.10;99.90;;;;;;5093993;28;20714;-84
2022/03/30 05:00:23;;;;;;;118.82;54.65;;;7.10;99.90;;;;;;5077031;28;20495;-84
2022/03/30 05:03:06;;;;;;;134.73;56.33;;;7.10;99.90;;;;;;5077182;28;20066;-85
2022/03/30 05:05:32;;;;;;;120.70;54.13;;;7.10;99.90;;;;;;5076994;28;20027;-85
2022/03/30 05:07:57;;;;;;;129.38;58.08;;;7.10;99.90;;;;;;5093464;28;20032;-87
2022/03/30 05:10:24;;;;;;;121.38;55.50;;;7.10;99.90;;;;;;5112388;28;20085;-87
2022/03/30 05:12:50;;;;;;;136.95;56.83;;;7.10;99.90;;;;;;5077472;28;20040;-87
2022/03/30 05:15:16;;;;;;;118.50;56.25;;;7.10;99.90;;;;;;5077347;28;20509;-88
2022/03/30 05:17:45;;;;;;;119.82;54.08;;;7.10;99.90;;;;;;5077013;28;20035;-87
2022/03/30 05:20:13;;;;;;;123.65;54.83;;;7.10;99.90;;;;;;5076293;28;20032;-87
2022/03/30 05:22:38;;;;;;;120.82;53.80;;;7.10;99.90;;;;;;5076884;28;20394;-87
2022/03/30 05:25:05;;;;;;;116.47;55.85;;;7.10;99.90;;;;;;5077050;28;20067;-87
2022/03/30 05:27:31;;;;;;;119.88;53.95;;;7.10;99.90;;;;;;5076515;28;20032;-87
2022/03/30 05:29:57;;;;;;;118.63;56.03;;;7.10;99.90;;;;;;5076979;28;20040;-88
2022/03/30 05:32:23;;;;;;;113.15;54.13;;;7.00;99.90;;;;;;5076607;28;20122;-87
2022/03/30 05:34:48;;;;;;;115.80;56.67;;;7.10;99.90;;;;;;5076471;28;20032;-88
2022/03/30 05:37:14;;;;;;;119.68;55.85;;;7.00;99.90;;;;;;5075994;28;20028;-87
2022/03/30 05:39:41;;;;;;;119.05;56.67;;;7.00;99.90;;;;;;5093267;28;20067;-87
2022/03/30 05:42:11;;;;;;;131.18;57.88;;;6.90;99.90;;;;;;5093939;28;20047;-87
2022/03/30 05:44:37;;;;;;;111.13;54.70;;;6.90;99.90;;;;;;5076941;28;20127;-87
2022/03/30 05:47:03;;;;;;;120.15;56.63;;;6.90;99.90;;;;;;5110106;28;20074;-87
2022/03/30 05:49:29;;;;;;;104.30;54.70;;;6.80;99.90;;;;;;5075992;28;20036;-87
2022/03/30 05:51:55;;;;;;;128.45;58.17;;;6.80;99.90;;;;;;5094155;28;20038;-86
2022/03/30 05:54:20;;;;;;;125.22;56.88;;;6.80;99.90;;;;;;5110296;28;20039;-87
2022/03/30 05:57:01;;;;;;;111.50;56.15;;;6.80;99.90;;;;;;5076517;28;20073;-87
2022/03/30 05:59:29;;;;;;;122.05;59.83;;;6.70;99.90;;;;;;5076610;28;20043;-87
2022/03/30 06:01:56;;;;;;;111.85;58.83;;;6.70;99.90;;;;;;5093172;28;20103;-88
2022/03/30 06:04:22;;;;;;;125.88;60.40;;;6.70;99.90;;;;;;5076201;28;20027;-87
2022/03/30 06:06:50;;;;;;;115.18;58.38;;;6.70;99.90;;;;;;5076067;28;20028;-88
2022/03/30 06:09:17;;;;;;;120.20;59.53;;;6.70;99.90;;;;;;5093742;28;20416;-87
2022/03/30 06:11:43;;;;;;;117.18;60.08;;;6.80;99.90;;;;;;5075712;28;20523;-88
2022/03/30 06:14:08;;;;;;;120.75;57.47;;;6.90;99.90;;;;;;5074977;28;20489;-88
2022/03/30 06:16:35;;;;;;;130.65;62.70;;;7.00;99.90;;;;;;5075250;28;20028;-88
2022/03/30 06:19:02;;;;;;;129.23;60.72;;;7.10;99.90;;;;;;5075222;28;20475;-88
2022/03/30 06:21:31;;;;;;;121.35;59.83;;;7.10;99.90;;;;;;5075152;28;20032;-88
2022/03/30 06:24:01;;;;;;;114.28;61.90;;;7.10;99.90;;;;;;5058739;28;20131;-88
2022/03/30 06:26:28;;;;;;;122.28;61.35;;;7.10;99.90;;;;;;5093230;28;20483;-88
2022/03/30 06:28:54;;;;;;;149.77;67.88;;;7.20;99.90;;;;;;5076141;28;20025;-88
2022/03/30 06:31:20;;;;;;;151.40;69.22;;;7.20;99.90;;;;;;5076218;28;20119;-88
2022/03/30 06:33:48;;;;;;;152.43;71.03;;;7.20;99.90;;;;;;5094260;28;20067;-87
2022/03/30 06:36:14;;;;;;;161.43;69.70;;;7.10;99.90;;;;;;5092880;28;20063;-88
2022/03/30 06:38:42;;;;;;;152.70;65.40;;;7.10;99.90;;;;;;5093989;28;20115;-88
2022/03/30 06:41:08;;;;;;;152.68;68.43;;;7.10;99.90;;;;;;5075590;28;20479;-87
2022/03/30 06:43:36;;;;;;;152.60;68.95;;;7.20;99.90;;;;;;5093075;28;20024;-87
2022/03/30 06:46:02;;;;;;;155.55;70.63;;;7.20;99.90;;;;;;5076023;28;20031;-88
2022/03/30 06:48:30;;;;;;;154.82;69.85;;;7.20;99.90;;;;;;5058910;28;20597;-86
2022/03/30 06:50:59;;;;;;;166.77;74.03;;;7.30;99.90;;;;;;5093273;28;20072;-88
2022/03/30 06:53:25;;;;;;;154.63;69.57;;;7.20;99.90;;;;;;5075600;28;20770;-88
2022/03/30 06:55:57;;;;;;;167.25;72.10;;;7.20;99.90;;;;;;5074783;28;20042;-88
2022/03/30 06:58:47;;;;;;;147.43;70.65;;;7.20;99.90;;;;;;5089660;28;20666;-87
2022/03/30 07:01:16;;;;;;;;;;;7.20;99.90;;;;;;5075553;28;20048;-88
2022/03/30 07:03:42;;;;;;;155.90;66.28;;;7.20;99.90;;;;;;5074776;28;19908;-88
2022/03/30 07:06:09;;;;;;;156.32;69.38;;;7.20;99.90;;;;;;5075129;28;20072;-88
2022/03/30 07:11:19;;;;;;;159.57;67.10;;;7.10;99.90;;;;;;5108668;28;20032;-88
2022/03/30 07:13:45;;;;;;;158.93;66.63;;;7.10;99.90;;;;;;5092573;28;20036;-87
2022/03/30 07:16:11;;;;;;;149.02;66.20;;;7.10;99.90;;;;;;5074568;28;20040;-87
2022/03/30 07:18:37;;;;;;;155.55;69.30;;;7.20;99.90;;;;;;5074496;28;20028;-87
2022/03/30 07:21:02;;;;;;;158.68;68.07;;;7.10;99.90;;;;;;5074198;28;20086;-87
2022/03/30 07:23:28;;;;;;;161.77;67.72;;;7.10;99.90;;;;;;5091522;28;20032;-87
2022/03/30 07:25:54;;;;;;;156.80;67.43;;;7.20;99.90;;;;;;5075040;28;20042;-87
2022/03/30 07:28:20;;;;;;;163.73;70.10;;;7.10;99.90;;;;;;5074343;28;20020;-87
2022/03/30 07:30:48;;;;;;;161.48;70.20;;;7.10;99.90;;;;;;5108802;28;20032;-87
2022/03/30 07:33:15;;;;;;;157.80;66.45;;;7.10;99.90;;;;;;5092611;28;20480;-87
2022/03/30 07:35:46;;;;;;;150.88;66.57;;;7.10;99.90;;;;;;5074256;28;20081;-87
2022/03/30 07:38:19;;;;;;;159.27;62.58;;;7.00;99.90;;;;;;5073363;28;20031;-87
2022/03/30 07:40:46;;;;;;;161.68;63.50;;;7.00;99.90;;;;;;5092117;28;20039;-86
2022/03/30 07:43:13;;;;;;;149.38;62.05;;;7.00;99.90;;;;;;5092724;28;20153;-87
2022/03/30 07:45:40;;;;;;;139.90;62.00;;;7.10;99.90;;;;;;5078183;28;20032;-87
2022/03/30 07:48:06;;;;;;;131.80;58.70;;;7.20;99.90;;;;;;5078517;28;20652;-87
2022/03/30 07:50:32;;;;;;;116.95;54.88;;;7.20;99.90;;;;;;5079038;28;20103;-87
2022/03/30 07:52:58;;;;;;;117.97;52.63;;;7.30;99.90;;;;;;5097007;28;20035;-87
2022/03/30 07:55:25;;;;;;;127.72;56.67;;;7.40;99.90;;;;;;5078951;28;20400;-87
2022/03/30 07:57:51;;;;;;;117.32;53.90;;;7.50;99.90;;;;;;5096911;28;20082;-87
2022/03/30 08:00:18;;;;;;;125.65;53.97;;;7.60;99.90;;;;;;5078557;28;20692;-87
2022/03/30 08:02:45;;;;;;;125.20;55.58;;;7.50;99.90;;;;;;5078433;28;20482;-87
2022/03/30 08:05:13;;;;;;;132.68;55.38;;;7.50;99.90;;;;;;5077741;28;20020;-87
2022/03/30 08:07:49;;;;;;;115.82;52.42;;;7.40;99.90;;;;;;5077891;28;20119;-87
2022/03/30 08:10:15;;;;;;;124.53;54.60;;;7.50;99.90;;;;;;5078800;28;20077;-87
2022/03/30 08:12:41;;;;;;;122.32;55.28;;;7.50;99.90;;;;;;5078619;28;20809;-87
2022/03/30 08:15:08;;;;;;;129.30;59.33;;;7.50;99.90;;;;;;5078211;28;20123;-88
2022/03/30 08:17:35;;;;;;;135.55;59.10;;;7.50;99.90;;;;;;5111495;28;20426;-87
2022/03/30 08:20:01;;;;;;;138.50;61.63;;;7.40;99.90;;;;;;5112089;28;20487;-87
2022/03/30 08:22:28;;;;;;;123.35;58.88;;;7.40;99.90;;;;;;5078118;28;20028;-83
2022/03/30 08:25:10;;;;;;;135.35;61.75;;;7.30;99.90;;;;;;5111942;28;20024;-86
2022/03/30 08:27:36;;;;;;;129.60;60.70;;;7.30;99.90;;;;;;5079943;28;20143;-87
2022/03/30 08:30:05;;;;;;;135.88;63.45;;;7.30;99.90;;;;;;5078516;28;20035;-86
2022/03/30 08:32:32;;;;;;;139.65;62.25;;;7.30;99.90;;;;;;5077879;28;20537;-86
2022/03/30 08:34:59;;;;;;;137.48;62.83;;;7.30;99.90;;;;;;5094636;28;20029;-86
2022/03/30 08:37:25;;;;;;;135.52;62.05;;;7.30;99.90;;;;;;5077254;28;20028;-87
2022/03/30 08:39:51;;;;;;;134.27;61.47;;;7.40;99.90;;;;;;5095591;28;20043;-86
2022/03/30 08:42:17;;;;;;;136.80;60.47;;;7.50;99.90;;;;;;5095627;28;20020;-87
2022/03/30 08:44:46;;;;;;;120.88;57.60;;;7.50;99.90;;;;;;5077459;28;20028;-87
2022/03/30 08:47:12;;;;;;;127.43;57.70;;;7.60;99.90;;;;;;5077527;28;20012;-86
2022/03/30 08:49:38;;;;;;;109.53;56.40;;;7.70;99.90;;;;;;5077346;28;20074;-86
2022/03/30 08:52:08;;;;;;;111.70;55.30;;;7.90;99.90;;;;;;5076657;28;20052;-86
2022/03/30 08:54:35;;;;;;;109.43;54.13;;;7.80;99.90;;;;;;5060033;28;20028;-86
2022/03/30 08:57:02;;;;;;;97.85;49.17;;;7.70;99.90;;;;;;5075796;28;20028;-85
2022/03/30 08:59:28;;;;;;;93.38;46.72;;;7.80;99.90;;;;;;5076988;28;20028;-85
2022/03/30 09:01:55;;;;;;;90.95;46.90;;;7.80;99.90;;;;;;5094267;28;20076;-85
2022/03/30 09:04:21;;;;;;;96.45;46.72;;;7.80;99.90;;;;;;5095626;28;20016;-86
2022/03/30 09:06:48;;;;;;;72.00;38.72;;;7.80;99.90;;;;;;5077082;28;20024;-86
2022/03/30 09:09:18;;;;;;;73.07;37.28;;;7.80;99.90;;;;;;5077262;28;20043;-85
2022/03/30 09:11:52;;;;;;;59.22;32.85;;;7.70;99.90;;;;;;5111133;28;20032;-85
2022/03/30 09:14:19;;;;;;;53.20;30.90;;;7.60;99.90;;;;;;5077400;28;20026;-85
2022/03/30 09:16:55;;;;;;;53.28;30.45;;;7.60;99.90;;;;;;5077040;28;20035;-85
2022/03/30 09:19:21;;;;;;;42.42;23.67;;;7.50;99.90;;;;;;5060375;28;20032;-84
2022/03/30 09:21:47;;;;;;;44.55;23.52;;;7.30;99.90;;;;;;5076774;28;20034;-85
2022/03/30 09:24:15;;;;;;;43.88;21.90;;;7.20;99.90;;;;;;5077172;28;20100;-84
2022/03/30 09:26:42;;;;;;;37.35;21.48;;;7.10;99.90;;;;;;5060191;28;20098;-83
2022/03/30 09:29:10;;;;;;;47.25;24.98;;;7.00;99.90;;;;;;5076715;28;20034;-85
2022/03/30 09:31:38;;;;;;;68.25;33.10;;;7.00;99.90;;;;;;5076440;28;20032;-84
2022/03/30 09:34:06;;;;;;;75.18;44.38;;;7.10;99.90;;;;;;5076808;28;20549;-85
2022/03/30 09:36:35;;;;;;;47.50;27.70;;;7.20;99.90;;;;;;5076842;28;20483;-85
2022/03/30 09:39:03;;;;;;;48.25;27.88;;;7.30;99.90;;;;;;5078234;28;20031;-85
2022/03/30 09:41:46;;;;;;;45.83;28.30;;;7.30;99.90;;;;;;5075515;28;20101;-85
2022/03/30 09:44:12;;;;;;;50.97;28.33;;;7.30;99.90;;;;;;5076064;28;20046;-85
2022/03/30 09:47:03;;;;;;;61.08;31.08;;;7.30;99.90;;;;;;5110104;28;20039;-85
2022/03/30 09:49:39;;;;;;;47.83;27.77;;;7.20;99.90;;;;;;5075952;28;20040;-84
2022/03/30 09:52:19;;;;;;;59.65;29.58;;;7.30;99.90;;;;;;5077090;28;20031;-85
2022/03/30 09:54:53;;;;;;;70.15;33.65;;;7.40;99.90;;;;;;5110291;28;20028;-85
2022/03/30 09:57:41;;;;;;;61.00;31.95;;;7.40;99.90;;;;;;5075926;28;20028;-84
2022/03/30 10:00:15;;;;;;;64.82;34.30;;;7.30;99.90;;;;;;5076244;28;20414;-85
2022/03/30 10:02:42;;;;;;;61.30;32.97;;;7.30;99.90;;;;;;5076460;28;20406;-85
2022/03/30 10:05:10;;;;;;;61.58;31.73;;;7.30;99.90;;;;;;5075975;28;20757;-85
2022/03/30 10:07:36;;;;;;;61.95;30.30;;;7.20;99.90;;;;;;5075840;28;20118;-85
2022/03/30 10:10:04;;;;;;;64.28;31.60;;;7.10;99.90;;;;;;5109782;28;20505;-84
2022/03/30 10:12:31;;;;;;;61.17;33.25;;;7.00;99.90;;;;;;5075394;28;20031;-85
2022/03/30 10:14:57;;;;;;;56.22;30.70;;;7.00;99.90;;;;;;5093470;28;20020;-84
2022/03/30 10:17:25;;;;;;;59.92;31.77;;;7.00;99.90;;;;;;5075595;28;20051;-85
2022/03/30 10:19:52;;;;;;;61.90;33.28;;;7.00;99.90;;;;;;5075583;28;20089;-85
2022/03/30 10:22:49;;;;;;;68.03;37.33;;;7.10;99.90;;;;;;5093860;28;20039;-86
2022/03/30 10:25:49;;;;;;;60.47;32.55;;;7.10;99.90;;;;;;5092606;28;20028;-85
2022/03/30 10:28:22;;;;;;;53.88;29.23;;;7.10;99.90;;;;;;5074212;28;20386;-85
2022/03/30 10:30:53;;;;;;;49.30;29.00;;;7.00;99.90;;;;;;5075307;28;20081;-85
2022/03/30 10:33:34;;;;;;;53.63;29.27;;;7.00;99.90;;;;;;5075171;28;20039;-85
2022/03/30 10:36:21;;;;;;;54.38;29.73;;;7.00;99.90;;;;;;5075281;28;20691;-85
2022/03/30 10:39:06;;;;;;;49.35;28.02;;;7.00;99.90;;;;;;5092060;28;20039;-85
2022/03/30 10:41:52;;;;;;;54.22;27.65;;;7.20;99.90;;;;;;5075144;28;20036;-85
2022/03/30 10:44:36;;;;;;;48.20;25.67;;;7.20;99.90;;;;;;5075683;28;20081;-85
2022/03/30 10:47:11;;;;;;;45.33;25.50;;;7.20;99.90;;;;;;5075333;28;20075;-85
2022/03/30 10:49:57;;;;;;;42.80;25.45;;;7.40;99.90;;;;;;5075378;28;20031;-85
2022/03/30 10:52:32;;;;;;;45.33;25.80;;;7.50;99.90;;;;;;5093181;28;20437;-85
2022/03/30 10:55:13;;;;;;;39.05;23.42;;;7.80;99.90;;;;;;5075228;28;20048;-85
2022/03/30 10:57:51;;;;;;;35.05;20.85;;;8.00;99.90;;;;;;5074702;28;20035;-86
2022/03/30 11:00:21;;;;;;;33.53;18.75;;;8.10;99.90;;;;;;5058009;28;20068;-86
2022/03/30 11:02:47;;;;;;;23.02;13.82;;;8.00;99.90;;;;;;5075174;28;20032;-86
2022/03/30 11:05:15;;;;;;;25.70;16.20;;;7.90;99.90;;;;;;5075627;28;20797;-86
2022/03/30 11:07:42;;;;;;;31.70;19.20;;;7.70;99.90;;;;;;5075075;28;20031;-86
2022/03/30 11:10:19;;;;;;;29.65;16.42;;;7.50;99.90;;;;;;5075160;28;20054;-86
2022/03/30 11:13:04;;;;;;;31.40;17.52;;;7.40;99.90;;;;;;5058226;28;20527;-85
2022/03/30 11:15:50;;;;;;;27.90;17.27;;;7.40;99.90;;;;;;5075386;28;20621;-87
2022/03/30 11:18:18;;;;;;;29.23;17.00;;;7.30;99.90;;;;;;5091633;28;20111;-87
2022/03/30 11:21:09;;;;;;;29.88;17.10;;;7.30;99.90;;;;;;5075376;28;20121;-86
2022/03/30 11:23:36;;;;;;;27.50;15.27;;;7.20;99.90;;;;;;5075628;28;20024;-86
2022/03/30 11:26:02;;;;;;;26.75;15.18;;;7.30;99.90;;;;;;5091901;28;20059;-86
2022/03/30 11:28:38;;;;;;;27.08;15.38;;;7.20;99.90;;;;;;5074843;28;20067;-87
2022/03/30 11:31:18;;;;;;;28.13;15.60;;;7.20;99.90;;;;;;5075184;28;20032;-87
2022/03/30 11:33:44;;;;;;;26.23;14.63;;;7.10;99.90;;;;;;5075122;28;20029;-87
2022/03/30 11:36:10;;;;;;;29.10;16.02;;;7.10;99.90;;;;;;5075098;28;20039;-87
2022/03/30 11:38:44;;;;;;;28.55;17.02;;;7.10;99.90;;;;;;5074610;28;20119;-87
2022/03/30 11:41:10;;;;;;;29.73;17.98;;;7.20;99.90;;;;;;5074264;28;20040;-87
2022/03/30 11:46:28;;;;;;;31.45;17.08;;;7.30;99.90;;;;;;5093071;28;20486;-87
2022/03/30 11:49:00;;;;;;;29.00;16.13;;;7.30;99.90;;;;;;5071083;28;20044;-87
2022/03/30 11:51:27;;;;;;;31.08;16.75;;;7.30;99.90;;;;;;5075202;28;20040;-87
2022/03/30 11:54:13;;;;;;;27.75;16.83;;;7.20;99.90;;;;;;5091258;28;20156;-87
2022/03/30 11:56:40;;;;;;;28.05;16.02;;;7.30;99.90;;;;;;5075003;28;20036;-87
2022/03/30 11:59:06;;;;;;;30.02;17.15;;;7.30;99.90;;;;;;5075025;28;20047;-86
2022/03/30 12:01:36;;;;;;;26.02;15.15;;;7.30;99.90;;;;;;5107819;28;20043;-87
2022/03/30 12:04:03;;;;;;;24.17;14.98;;;7.40;99.90;;;;;;5074366;28;20062;-87
2022/03/30 12:06:31;;;;;;;25.08;15.45;;;7.40;99.90;;;;;;5076008;28;20020;-87
2022/03/30 12:09:00;;;;;;;22.98;14.32;;;7.50;99.90;;;;;;5074441;28;20364;-87
2022/03/30 12:11:29;;;;;;;23.52;14.38;;;7.50;99.90;;;;;;5075277;28;20043;-87
2022/03/30 12:13:57;;;;;;;26.05;15.00;;;7.60;99.90;;;;;;5074886;28;20464;-87
2022/03/30 12:16:26;;;;;;;18.10;12.00;;;7.80;99.90;;;;;;5074893;28;20043;-87
2022/03/30 12:18:58;;;;;;;23.02;12.88;;;7.70;99.90;;;;;;5074191;28;20055;-87
2022/03/30 12:21:34;;;;;;;22.85;12.85;;;7.60;99.90;;;;;;5073908;28;20032;-88
2022/03/30 12:24:01;;;;;;;18.00;12.57;;;7.50;99.90;;;;;;5107734;28;20024;-87
2022/03/30 12:26:27;;;;;;;21.85;13.60;;;7.40;99.90;;;;;;5074973;28;20070;-87
2022/03/30 12:29:30;;;;;;;17.13;11.15;;;7.30;99.90;;;;;;5091507;28;20024;-87
2022/03/30 12:31:57;;;;;;;18.27;11.85;;;7.40;99.90;;;;;;5061988;28;20468;-87
2022/03/30 12:34:24;;;;;;;16.40;10.48;;;7.20;99.90;;;;;;5095488;28;20028;-87
2022/03/30 12:36:58;;;;;;;17.48;11.20;;;7.30;99.90;;;;;;5078212;28;20032;-87
2022/03/30 12:39:39;;;;;;;18.38;11.10;;;7.40;99.90;;;;;;5096474;28;20112;-87
2022/03/30 12:42:14;;;;;;;18.35;10.68;;;7.50;99.90;;;;;;5096661;28;20036;-88
2022/03/30 12:44:49;;;;;;;18.98;11.18;;;7.50;99.90;;;;;;5096314;28;20043;-87
2022/03/30 12:47:25;;;;;;;18.63;12.13;;;7.50;99.90;;;;;;5078316;28;20032;-86
2022/03/30 12:49:53;;;;;;;20.13;13.57;;;7.60;99.90;;;;;;5078606;28;20074;-87